createdAt,value
2019-04-26T00:00:03.771Z,11.6
2019-04-26T00:01:02.768Z,11.5
2019-04-26T00:02:03.250Z,11.4
2019-04-26T00:03:02.917Z,11.4
2019-04-26T00:04:03.786Z,11.4
2019-04-26T00:05:03.720Z,11.4
2019-04-26T00:06:03.569Z,11.3
2019-04-26T00:07:04.055Z,11.4
2019-04-26T00:08:03.466Z,11.4
2019-04-26T00:09:04.198Z,11.3
2019-04-26T00:10:03.691Z,11.3
2019-04-26T00:11:03.508Z,11.3
2019-04-26T00:12:03.589Z,11.3
2019-04-26T00:13:36.412Z,11.3
2019-04-26T00:15:04.122Z,11.2
2019-04-26T00:16:03.255Z,11.2
2019-04-26T00:17:04.145Z,11.1
2019-04-26T00:18:03.541Z,11.1
2019-04-26T00:19:03.806Z,11
2019-04-26T00:20:03.306Z,11
2019-04-26T00:21:02.963Z,11.1
2019-04-26T00:22:03.585Z,11.1
2019-04-26T00:23:02.945Z,11.2
2019-04-26T00:24:03.389Z,11.1
2019-04-26T00:25:02.968Z,11.3
2019-04-26T00:26:03.392Z,11.2
2019-04-26T00:27:03.272Z,11.1
2019-04-26T00:28:03.250Z,11
2019-04-26T00:29:02.966Z,11.1
2019-04-26T00:30:03.335Z,11.1
2019-04-26T00:31:03.085Z,11.2
2019-04-26T00:32:02.730Z,11.2
2019-04-26T00:33:03.215Z,11.2
2019-04-26T00:34:03.129Z,11.2
2019-04-26T00:35:03.233Z,11.1
2019-04-26T00:36:03.039Z,11.2
2019-04-26T00:37:02.987Z,11.1
2019-04-26T00:38:03.135Z,11.1
2019-04-26T00:39:03.187Z,11.1
2019-04-26T00:40:03.059Z,11.1
2019-04-26T00:41:03.694Z,11.1
2019-04-26T00:42:03.752Z,11.3
2019-04-26T00:43:03.708Z,11.3
2019-04-26T00:44:03.617Z,11.3
2019-04-26T00:45:03.581Z,11.2
2019-04-26T00:46:03.690Z,10.6
2019-04-26T00:47:03.311Z,10.2
2019-04-26T00:48:03.590Z,10.3
2019-04-26T00:49:03.381Z,10.5
2019-04-26T00:50:03.703Z,10.5
2019-04-26T00:51:03.766Z,10.8
2019-04-26T00:52:03.340Z,10.8
2019-04-26T00:53:03.166Z,10.8
2019-04-26T00:54:03.147Z,10.7
2019-04-26T00:55:03.437Z,10.8
2019-04-26T00:56:02.931Z,10.6
2019-04-26T00:57:03.122Z,10.7
2019-04-26T00:58:03.680Z,10.8
2019-04-26T00:59:03.138Z,10.9
2019-04-26T01:00:03.130Z,10.9
2019-04-26T01:01:02.860Z,11.1
2019-04-26T01:02:03.634Z,11.1
2019-04-26T01:03:02.728Z,11.1
2019-04-26T01:04:03.329Z,11.1
2019-04-26T01:05:03.069Z,10.9
2019-04-26T01:06:02.961Z,10.3
2019-04-26T01:07:02.832Z,10.3
2019-04-26T01:08:02.742Z,10.2
2019-04-26T01:09:02.702Z,10.1
2019-04-26T01:10:02.808Z,10.1
2019-04-26T01:11:04.005Z,10.3
2019-04-26T01:12:03.609Z,10.4
2019-04-26T01:13:03.387Z,10.4
2019-04-26T01:14:03.449Z,10.6
2019-04-26T01:15:03.685Z,10.5
2019-04-26T01:16:01.987Z,10.1
2019-04-26T01:17:03.527Z,10.1
2019-04-26T01:18:03.452Z,9.9
2019-04-26T01:19:03.296Z,9.9
2019-04-26T01:20:03.543Z,10.1
2019-04-26T01:21:03.270Z,10.1
2019-04-26T01:22:03.326Z,10.1
2019-04-26T01:23:03.106Z,10.1
2019-04-26T01:24:03.162Z,10.2
2019-04-26T01:25:02.930Z,10.3
2019-04-26T01:26:03.137Z,10.3
2019-04-26T01:27:02.833Z,10.2
2019-04-26T01:28:02.872Z,10.3
2019-04-26T01:29:02.936Z,10.3
2019-04-26T01:30:02.710Z,10.4
2019-04-26T01:31:02.865Z,10.6
2019-04-26T01:32:02.830Z,10.8
2019-04-26T01:33:03.578Z,10.9
2019-04-26T01:35:36.175Z,11.1
2019-04-26T01:37:03.453Z,11.4
2019-04-26T01:38:03.689Z,11.6
2019-04-26T01:39:02.953Z,11.6
2019-04-26T01:40:03.652Z,11.7
2019-04-26T01:41:03.399Z,11.8
2019-04-26T01:42:03.686Z,11.6
2019-04-26T01:43:03.156Z,11.5
2019-04-26T01:44:03.129Z,11.3
2019-04-26T01:45:03.552Z,11.4
2019-04-26T01:46:03.324Z,11.3
2019-04-26T01:47:03.247Z,11.3
2019-04-26T01:48:02.970Z,11.3
2019-04-26T01:49:03.378Z,11.3
2019-04-26T01:50:03.438Z,11.4
2019-04-26T01:51:03.040Z,11.4
2019-04-26T01:52:03.280Z,11.4
2019-04-26T01:53:03.016Z,11.5
2019-04-26T01:54:02.844Z,11.6
2019-04-26T01:55:03.072Z,11.6
2019-04-26T01:56:02.940Z,11.4
2019-04-26T01:57:02.934Z,11.4
2019-04-26T01:58:03.174Z,11.4
2019-04-26T01:59:03.032Z,11.5
2019-04-26T02:00:03.865Z,11.6
2019-04-26T02:01:03.606Z,11.5
2019-04-26T02:02:03.866Z,11.4
2019-04-26T02:03:03.074Z,11.4
2019-04-26T02:04:03.510Z,11.4
2019-04-26T02:05:03.732Z,11.4
2019-04-26T02:06:03.631Z,11.3
2019-04-26T02:07:03.169Z,11.2
2019-04-26T02:08:03.301Z,11.1
2019-04-26T02:09:03.140Z,10.9
2019-04-26T02:10:03.284Z,10.9
2019-04-26T02:11:03.354Z,11
2019-04-26T02:12:02.905Z,11
2019-04-26T02:13:03.092Z,11
2019-04-26T02:14:03.566Z,10.9
2019-04-26T02:15:03.332Z,10.3
2019-04-26T02:16:03.126Z,10.1
2019-04-26T02:17:04.157Z,10.1
2019-04-26T02:18:02.743Z,10.1
2019-04-26T02:19:04.771Z,10.2
2019-04-26T02:20:04.179Z,10.2
2019-04-26T02:21:06.418Z,10.3
2019-04-26T02:22:04.355Z,10.3
2019-04-26T02:23:03.400Z,10.4
2019-04-26T02:24:04.137Z,10.5
2019-04-26T02:25:04.288Z,10.4
2019-04-26T02:26:05.984Z,10.2
2019-04-26T02:27:03.227Z,10.1
2019-04-26T02:28:03.947Z,10.1
2019-04-26T02:29:03.764Z,10.1
2019-04-26T02:30:04.003Z,10.2
2019-04-26T02:31:03.079Z,10.3
2019-04-26T02:32:03.835Z,10.3
2019-04-26T02:33:03.924Z,10.3
2019-04-26T02:34:03.023Z,10.3
2019-04-26T02:35:03.870Z,10.3
2019-04-26T02:36:03.744Z,10.3
2019-04-26T02:37:04.736Z,10.2
2019-04-26T02:38:06.450Z,10
2019-04-26T02:39:03.394Z,9.6
2019-04-26T02:40:03.560Z,9.3
2019-04-26T02:41:04.542Z,9.1
2019-04-26T02:42:04.207Z,9.1
2019-04-26T02:43:03.382Z,9.2
2019-04-26T02:44:03.393Z,9.2
2019-04-26T02:45:03.351Z,9.1
2019-04-26T02:46:03.421Z,9.2
2019-04-26T02:47:04.569Z,9.2
2019-04-26T02:48:02.973Z,9.3
2019-04-26T02:49:03.081Z,9.4
2019-04-26T02:50:03.004Z,9.4
2019-04-26T02:51:03.010Z,9.4
2019-04-26T02:52:03.084Z,9.4
2019-04-26T02:53:03.562Z,9.3
2019-04-26T02:54:03.597Z,9.4
2019-04-26T02:55:02.866Z,9.5
2019-04-26T02:56:03.890Z,9.4
2019-04-26T02:57:04.716Z,9.6
2019-04-26T02:58:03.478Z,9.5
2019-04-26T02:59:04.156Z,9.5
2019-04-26T03:00:02.511Z,9.3
2019-04-26T03:01:03.541Z,9.3
2019-04-26T03:02:03.450Z,9.3
2019-04-26T03:03:03.513Z,9.3
2019-04-26T03:04:03.574Z,9.2
2019-04-26T03:05:03.606Z,9.2
2019-04-26T03:06:03.416Z,9.3
2019-04-26T03:07:04.225Z,9.2
2019-04-26T03:08:03.391Z,9.2
2019-04-26T03:09:03.374Z,9.1
2019-04-26T03:10:03.318Z,9.2
2019-04-26T03:11:03.257Z,9.3
2019-04-26T03:12:03.180Z,9.2
2019-04-26T03:13:03.290Z,9.2
2019-04-26T03:14:03.027Z,9.2
2019-04-26T03:15:14.693Z,9.1
2019-04-26T03:16:03.266Z,9.1
2019-04-26T03:17:03.869Z,9.2
2019-04-26T03:18:02.839Z,9.1
2019-04-26T03:19:02.931Z,9.1
2019-04-26T03:20:03.815Z,9.3
2019-04-26T03:21:03.763Z,9.4
2019-04-26T03:22:03.679Z,9.4
2019-04-26T03:23:04.023Z,9.4
2019-04-26T03:24:03.681Z,9.4
2019-04-26T03:25:04.217Z,9.4
2019-04-26T03:26:03.714Z,9.3
2019-04-26T03:27:03.626Z,9.2
2019-04-26T03:28:03.554Z,9.1
2019-04-26T03:29:03.552Z,9.1
2019-04-26T03:30:23.567Z,9.1
2019-04-26T03:31:03.674Z,9.1
2019-04-26T03:32:03.725Z,9.1
2019-04-26T03:33:03.755Z,9.1
2019-04-26T03:34:03.765Z,9.1
2019-04-26T03:35:03.451Z,9.1
2019-04-26T03:36:03.687Z,9.1
2019-04-26T03:37:21.864Z,9.1
2019-04-26T03:38:03.387Z,9.2
2019-04-26T03:39:03.501Z,9.3
2019-04-26T03:40:03.459Z,9.3
2019-04-26T03:41:03.753Z,9.3
2019-04-26T03:42:03.216Z,9.3
2019-04-26T03:43:03.308Z,9.4
2019-04-26T03:44:03.154Z,9.4
2019-04-26T03:45:03.084Z,9.4
2019-04-26T03:46:03.011Z,9.3
2019-04-26T03:47:03.387Z,9.2
2019-04-26T03:48:03.266Z,9.2
2019-04-26T03:49:03.072Z,9.1
2019-04-26T03:50:03.051Z,9
2019-04-26T03:51:03.047Z,8.9
2019-04-26T03:52:02.982Z,8.8
2019-04-26T03:53:02.834Z,8.6
2019-04-26T03:54:03.002Z,8.6
2019-04-26T03:55:04.033Z,8.4
2019-04-26T03:56:02.807Z,8.3
2019-04-26T03:57:02.982Z,8.3
2019-04-26T03:58:03.768Z,8.4
2019-04-26T03:59:03.870Z,8.5
2019-04-26T04:00:02.811Z,8.6
2019-04-26T04:01:03.644Z,8.7
2019-04-26T04:02:03.440Z,8.7
2019-04-26T04:03:03.875Z,8.6
2019-04-26T04:04:03.598Z,8.7
2019-04-26T04:05:03.372Z,8.5
2019-04-26T04:06:03.384Z,8.4
2019-04-26T04:07:05.409Z,8.3
2019-04-26T04:08:03.609Z,8.3
2019-04-26T04:09:03.565Z,8.4
2019-04-26T04:10:03.555Z,8.4
2019-04-26T04:11:03.691Z,8.4
2019-04-26T04:12:12.706Z,8.4
2019-04-26T04:13:03.329Z,8.4
2019-04-26T04:14:03.462Z,8.6
2019-04-26T04:15:03.274Z,8.6
2019-04-26T04:16:03.262Z,8.6
2019-04-26T04:17:02.978Z,8.7
2019-04-26T04:18:02.918Z,8.7
2019-04-26T04:19:02.979Z,8.6
2019-04-26T04:20:03.020Z,8.6
2019-04-26T04:21:03.721Z,8.6
2019-04-26T04:22:02.783Z,8.7
2019-04-26T04:23:02.950Z,8.8
2019-04-26T04:24:03.234Z,8.8
2019-04-26T04:25:03.709Z,8.8
2019-04-26T04:26:03.664Z,9
2019-04-26T04:27:03.753Z,8.9
2019-04-26T04:28:03.695Z,8.8
2019-04-26T04:29:03.334Z,8.8
2019-04-26T04:30:03.595Z,8.9
2019-04-26T04:31:02.708Z,8.9
2019-04-26T04:32:03.590Z,8.8
2019-04-26T04:33:03.485Z,8.9
2019-04-26T04:34:03.612Z,8.9
2019-04-26T04:35:07.035Z,8.9
2019-04-26T04:36:03.242Z,8.9
2019-04-26T04:37:03.292Z,9.1
2019-04-26T04:38:10.153Z,9.2
2019-04-26T04:39:13.419Z,9.2
2019-04-26T04:40:03.413Z,9.2
2019-04-26T04:41:03.154Z,9.3
2019-04-26T04:42:03.429Z,9.3
2019-04-26T04:43:03.275Z,9.4
2019-04-26T04:44:03.497Z,9.5
2019-04-26T04:45:03.531Z,9.6
2019-04-26T04:46:03.457Z,9.6
2019-04-26T04:47:03.073Z,9.6
2019-04-26T04:48:03.269Z,9.7
2019-04-26T04:49:03.325Z,9.7
2019-04-26T04:50:02.978Z,9.7
2019-04-26T04:51:02.941Z,9.6
2019-04-26T04:52:03.884Z,9.4
2019-04-26T04:53:04.118Z,9.4
2019-04-26T04:54:03.735Z,9.4
2019-04-26T04:55:08.421Z,9.4
2019-04-26T04:56:03.947Z,9.4
2019-04-26T04:57:02.949Z,9.5
2019-04-26T04:58:03.584Z,9.5
2019-04-26T04:59:03.801Z,9.5
2019-04-26T05:00:04.032Z,9.6
2019-04-26T05:01:03.478Z,9.7
2019-04-26T05:02:03.724Z,9.7
2019-04-26T05:03:03.747Z,9.7
2019-04-26T05:04:03.576Z,9.9
2019-04-26T05:05:03.586Z,9.9
2019-04-26T05:06:08.175Z,10
2019-04-26T05:07:03.398Z,10.1
2019-04-26T05:08:07.292Z,10.1
2019-04-26T05:09:03.757Z,10.1
2019-04-26T05:10:03.623Z,10.1
2019-04-26T05:11:03.496Z,10.2
2019-04-26T05:12:03.506Z,10.3
2019-04-26T05:13:03.624Z,10.4
2019-04-26T05:14:03.286Z,10.5
2019-04-26T05:15:03.503Z,10.6
2019-04-26T05:16:03.196Z,10.6
2019-04-26T05:17:03.594Z,10.6
2019-04-26T05:18:03.188Z,10.6
2019-04-26T05:19:03.364Z,10.5
2019-04-26T05:20:03.302Z,10.6
2019-04-26T05:21:03.144Z,10.6
2019-04-26T05:22:02.964Z,10.8
2019-04-26T05:23:03.014Z,10.9
2019-04-26T05:24:03.040Z,11.1
2019-04-26T05:25:04.023Z,11.5
2019-04-26T05:26:03.447Z,11.9
2019-04-26T05:27:02.879Z,12.2
2019-04-26T05:28:03.004Z,11.8
2019-04-26T05:29:03.145Z,11.8
2019-04-26T05:30:03.142Z,11.9
2019-04-26T05:31:03.098Z,11.9
2019-04-26T05:32:02.961Z,12.1
2019-04-26T05:33:02.756Z,12.2
2019-04-26T05:34:02.660Z,12.3
2019-04-26T05:35:02.696Z,12.4
2019-04-26T05:36:03.922Z,12.6
2019-04-26T05:37:03.739Z,12.8
2019-04-26T05:38:03.638Z,13
2019-04-26T05:39:03.742Z,12.8
2019-04-26T05:40:03.389Z,12.4
2019-04-26T05:41:03.751Z,12.1
2019-04-26T05:42:03.569Z,12.1
2019-04-26T05:43:03.498Z,12
2019-04-26T05:44:03.557Z,12.1
2019-04-26T05:45:03.119Z,12.1
2019-04-26T05:46:03.334Z,12.3
2019-04-26T05:47:03.265Z,12.4
2019-04-26T05:48:12.129Z,12.5
2019-04-26T05:49:03.785Z,12.7
2019-04-26T05:50:03.382Z,12.8
2019-04-26T05:51:03.281Z,12.5
2019-04-26T05:52:03.046Z,12.3
2019-04-26T05:53:03.065Z,12.3
2019-04-26T05:54:02.847Z,11.9
2019-04-26T05:55:03.100Z,11.8
2019-04-26T05:56:03.018Z,11.8
2019-04-26T05:57:02.979Z,11.8
2019-04-26T05:58:03.077Z,11.6
2019-04-26T05:59:03.311Z,11.7
2019-04-26T06:00:02.930Z,11.6
2019-04-26T06:01:03.183Z,11.6
2019-04-26T06:02:03.781Z,11.6
2019-04-26T06:03:03.181Z,11.5
2019-04-26T06:04:03.739Z,11.5
2019-04-26T06:05:03.326Z,11.6
2019-04-26T06:06:05.624Z,11.5
2019-04-26T06:07:03.734Z,11.5
2019-04-26T06:08:03.914Z,11.5
2019-04-26T06:09:03.721Z,11.5
2019-04-26T06:10:04.002Z,11.5
2019-04-26T06:11:03.201Z,11.5
2019-04-26T06:12:03.706Z,11.6
2019-04-26T06:13:03.587Z,11.6
2019-04-26T06:14:03.627Z,11.6
2019-04-26T06:15:03.805Z,11.6
2019-04-26T06:16:03.529Z,11.6
2019-04-26T06:17:03.356Z,11.6
2019-04-26T06:18:03.226Z,11.8
2019-04-26T06:19:03.157Z,11.8
2019-04-26T06:20:03.202Z,12
2019-04-26T06:21:03.057Z,12
2019-04-26T06:22:03.287Z,11.9
2019-04-26T06:23:03.018Z,11.9
2019-04-26T06:24:03.414Z,12.1
2019-04-26T06:25:03.523Z,12.1
2019-04-26T06:26:04.807Z,12.4
2019-04-26T06:27:14.565Z,12.6
2019-04-26T06:28:03.304Z,12.7
2019-04-26T06:29:03.471Z,12.7
2019-04-26T06:30:03.634Z,12.7
2019-04-26T06:31:03.606Z,12.7
2019-04-26T06:32:02.776Z,12.6
2019-04-26T06:33:06.450Z,12.6
2019-04-26T06:34:03.177Z,12.6
2019-04-26T06:35:03.692Z,12.6
2019-04-26T06:36:03.048Z,12.6
2019-04-26T06:37:04.472Z,12.6
2019-04-26T06:38:04.082Z,12.7
2019-04-26T06:39:02.707Z,12.9
2019-04-26T06:40:02.976Z,13.1
2019-04-26T06:41:04.515Z,13.3
2019-04-26T06:42:03.066Z,13.4
2019-04-26T06:43:03.480Z,13.6
2019-04-26T06:44:04.844Z,13.8
2019-04-26T06:45:04.809Z,14.2
2019-04-26T06:46:03.375Z,14.3
2019-04-26T06:47:04.146Z,14.4
2019-04-26T06:48:04.081Z,14
2019-04-26T06:49:03.553Z,14.1
2019-04-26T06:50:03.655Z,14.1
2019-04-26T06:51:04.628Z,14.2
2019-04-26T06:52:03.466Z,14.4
2019-04-26T06:53:03.713Z,14.6
2019-04-26T06:54:03.615Z,14.8
2019-04-26T06:55:04.416Z,14.9
2019-04-26T06:56:03.194Z,14.9
2019-04-26T06:57:15.294Z,15.1
2019-04-26T06:58:03.253Z,15.2
2019-04-26T06:59:03.641Z,15
2019-04-26T07:00:04.517Z,14.7
2019-04-26T07:01:03.402Z,14.8
2019-04-26T07:02:03.206Z,14.6
2019-04-26T07:03:03.726Z,14.3
2019-04-26T07:04:04.275Z,14.1
2019-04-26T07:05:04.918Z,14
2019-04-26T07:06:02.995Z,13.9
2019-04-26T07:07:02.838Z,13.9
2019-04-26T07:08:06.668Z,13.9
2019-04-26T07:09:03.841Z,14.1
2019-04-26T07:10:04.202Z,14.2
2019-04-26T07:11:04.926Z,14.3
2019-04-26T07:12:03.691Z,14
2019-04-26T07:13:04.080Z,13.9
2019-04-26T07:14:04.532Z,13.8
2019-04-26T07:15:03.967Z,13.7
2019-04-26T07:16:23.264Z,13.7
2019-04-26T07:17:04.697Z,13.8
2019-04-26T07:18:04.546Z,13.7
2019-04-26T07:19:03.607Z,13.6
2019-04-26T07:20:06.175Z,13.6
2019-04-26T07:21:03.015Z,13.6
2019-04-26T07:22:04.176Z,13.6
2019-04-26T07:23:06.017Z,13.6
2019-04-26T07:24:04.049Z,13.7
2019-04-26T07:25:03.697Z,13.8
2019-04-26T07:26:03.930Z,13.9
2019-04-26T07:27:03.547Z,14
2019-04-26T07:28:11.898Z,14.1
2019-04-26T07:29:03.226Z,14.2
2019-04-26T07:30:05.374Z,13.9
2019-04-26T07:31:04.231Z,13.7
2019-04-26T07:32:03.462Z,13.6
2019-04-26T07:33:04.284Z,13.6
2019-04-26T07:34:03.702Z,13.6
2019-04-26T07:35:04.735Z,13.7
2019-04-26T07:36:03.914Z,13.8
2019-04-26T07:37:04.776Z,13.8
2019-04-26T07:38:04.861Z,13.9
2019-04-26T07:39:20.853Z,13.9
2019-04-26T07:40:03.600Z,14.2
2019-04-26T07:41:03.373Z,14.3
2019-04-26T07:42:03.437Z,14.3
2019-04-26T07:43:03.405Z,14.4
2019-04-26T07:44:03.943Z,14.5
2019-04-26T07:45:03.902Z,14.5
2019-04-26T07:46:04.185Z,14.5
2019-04-26T07:47:04.253Z,14.6
2019-04-26T07:48:03.317Z,14.6
2019-04-26T07:49:04.280Z,14.6
2019-04-26T07:50:05.186Z,14.6
2019-04-26T07:51:04.435Z,14.7
2019-04-26T07:52:04.368Z,14.8
2019-04-26T07:53:05.100Z,14.8
2019-04-26T07:54:05.131Z,14.7
2019-04-26T07:55:04.986Z,14.8
2019-04-26T07:56:05.108Z,14.6
2019-04-26T07:57:04.676Z,14.4
2019-04-26T07:58:05.325Z,14.4
2019-04-26T07:59:07.304Z,14.4
2019-04-26T08:00:04.413Z,14.5
2019-04-26T08:01:04.119Z,14.6
2019-04-26T08:02:05.206Z,14.6
2019-04-26T08:03:06.948Z,14.8
2019-04-26T08:04:05.369Z,14.8
2019-04-26T08:05:05.951Z,14.7
2019-04-26T08:06:05.881Z,14.9
2019-04-26T08:07:06.386Z,15
2019-04-26T08:08:06.884Z,14.9
2019-04-26T08:09:06.106Z,14.9
2019-04-26T08:10:06.171Z,14.8
2019-04-26T08:11:04.683Z,14.8
2019-04-26T08:12:06.197Z,14.6
2019-04-26T08:13:06.193Z,14.4
2019-04-26T08:14:06.194Z,14.3
2019-04-26T08:15:06.109Z,14.4
2019-04-26T08:16:07.166Z,14.3
2019-04-26T08:17:06.693Z,14.2
2019-04-26T08:18:06.607Z,14.3
2019-04-26T08:19:06.987Z,14.6
2019-04-26T08:20:12.327Z,14.8
2019-04-26T08:21:16.879Z,14.8
2019-04-26T08:22:28.373Z,15.3
2019-04-26T08:23:37.776Z,15.5
2019-04-26T08:25:03.561Z,15.8
2019-04-26T08:26:02.922Z,15.8
2019-04-26T08:27:23.495Z,15.8
2019-04-26T08:28:03.768Z,15.7
2019-04-26T08:29:03.477Z,15.7
2019-04-26T08:30:17.375Z,15.6
2019-04-26T08:31:07.891Z,15.4
2019-04-26T08:32:03.465Z,15.4
2019-04-26T08:33:13.410Z,15.4
2019-04-26T08:34:03.383Z,15.3
2019-04-26T08:35:19.886Z,15.1
2019-04-26T08:36:03.274Z,15.1
2019-04-26T08:37:03.352Z,15.1
2019-04-26T08:38:20.765Z,15.3
2019-04-26T08:39:03.299Z,15.4
2019-04-26T08:40:03.337Z,15.3
2019-04-26T08:41:08.181Z,15.2
2019-04-26T08:42:03.634Z,15.1
2019-04-26T08:43:02.916Z,15.1
2019-04-26T08:44:08.147Z,15.1
2019-04-26T08:45:12.716Z,14.9
2019-04-26T08:46:03.668Z,14.9
2019-04-26T08:47:16.313Z,14.8
2019-04-26T08:48:03.003Z,14.8
2019-04-26T08:49:06.763Z,14.8
2019-04-26T08:50:02.776Z,14.8
2019-04-26T08:51:03.727Z,14.7
2019-04-26T08:52:15.064Z,14.8
2019-04-26T08:53:03.793Z,14.8
2019-04-26T08:54:03.745Z,15.3
2019-04-26T08:55:03.006Z,15.3
2019-04-26T08:56:03.659Z,15.3
2019-04-26T08:57:02.881Z,15.3
2019-04-26T08:58:03.653Z,15.1
2019-04-26T08:59:03.737Z,15.1
2019-04-26T09:00:03.914Z,15.2
2019-04-26T09:01:03.387Z,15.3
2019-04-26T09:02:03.365Z,15.2
2019-04-26T09:03:12.216Z,15.3
2019-04-26T09:04:03.471Z,15.2
2019-04-26T09:05:03.608Z,15.1
2019-04-26T09:06:03.457Z,15.1
2019-04-26T09:07:03.542Z,15
2019-04-26T09:08:04.162Z,15
2019-04-26T09:09:03.066Z,15.1
2019-04-26T09:10:11.550Z,14.9
2019-04-26T09:11:02.907Z,14.9
2019-04-26T09:12:09.795Z,15.2
2019-04-26T09:13:02.983Z,15.1
2019-04-26T09:14:03.342Z,15.2
2019-04-26T09:15:02.747Z,15.1
2019-04-26T09:16:03.491Z,15.1
2019-04-26T09:17:03.103Z,15.1
2019-04-26T09:18:07.023Z,14.9
2019-04-26T09:19:02.879Z,14.9
2019-04-26T09:20:09.712Z,15.1
2019-04-26T09:21:02.719Z,15.3
2019-04-26T09:22:13.707Z,15.3
2019-04-26T09:23:05.163Z,15.4
2019-04-26T09:24:03.604Z,15.3
2019-04-26T09:25:03.704Z,15.1
2019-04-26T09:26:03.636Z,15.1
2019-04-26T09:27:02.993Z,15
2019-04-26T09:28:03.580Z,15.1
2019-04-26T09:29:03.684Z,15.1
2019-04-26T09:30:06.529Z,15.1
2019-04-26T09:31:03.240Z,15.2
2019-04-26T09:32:03.577Z,15.2
2019-04-26T09:33:03.471Z,15.2
2019-04-26T09:34:11.428Z,15.1
2019-04-26T09:35:03.268Z,15.1
2019-04-26T09:36:03.218Z,15.1
2019-04-26T09:37:03.040Z,15.2
2019-04-26T09:38:03.272Z,15.7
2019-04-26T09:39:09.584Z,15.8
2019-04-26T09:40:14.970Z,15.8
2019-04-26T09:41:03.101Z,15.8
2019-04-26T09:42:09.827Z,16.1
2019-04-26T09:43:02.947Z,16.3
2019-04-26T09:44:02.936Z,16.5
2019-04-26T09:45:02.808Z,16.7
2019-04-26T09:46:03.892Z,16.4
2019-04-26T09:47:02.821Z,16.3
2019-04-26T09:48:03.695Z,16.1
2019-04-26T09:49:08.641Z,16.2
2019-04-26T09:50:03.609Z,16.2
2019-04-26T09:51:03.526Z,16.1
2019-04-26T09:52:03.360Z,15.9
2019-04-26T09:53:03.209Z,15.9
2019-04-26T09:54:03.352Z,16
2019-04-26T09:55:03.436Z,16.1
2019-04-26T09:56:03.369Z,16.1
2019-04-26T09:57:03.172Z,16.4
2019-04-26T09:58:03.258Z,16.2
2019-04-26T09:59:06.889Z,16.1
2019-04-26T10:00:02.901Z,16
2019-04-26T10:01:04.735Z,16
2019-04-26T10:02:03.106Z,15.9
2019-04-26T10:03:10.677Z,15.8
2019-04-26T10:04:03.590Z,15.6
2019-04-26T10:05:03.147Z,15.6
2019-04-26T10:06:02.913Z,15.6
2019-04-26T10:07:04.305Z,15.5
2019-04-26T10:08:03.711Z,15.5
2019-04-26T10:09:02.895Z,15.4
2019-04-26T10:10:03.919Z,15.3
2019-04-26T10:11:10.816Z,15.3
2019-04-26T10:12:03.785Z,15.3
2019-04-26T10:13:03.729Z,15.4
2019-04-26T10:14:03.703Z,15.4
2019-04-26T10:15:03.843Z,15.4
2019-04-26T10:16:04.446Z,15.3
2019-04-26T10:17:03.409Z,15.3
2019-04-26T10:18:03.589Z,15.1
2019-04-26T10:19:03.347Z,15.1
2019-04-26T10:20:03.448Z,15
2019-04-26T10:21:03.098Z,14.9
2019-04-26T10:22:03.071Z,14.9
2019-04-26T10:23:03.239Z,14.8
2019-04-26T10:24:01.956Z,14.8
2019-04-26T10:25:16.977Z,14.8
2019-04-26T10:26:03.181Z,14.8
2019-04-26T10:27:05.038Z,14.9
2019-04-26T10:28:02.940Z,14.9
2019-04-26T10:29:02.979Z,14.8
2019-04-26T10:30:09.649Z,14.7
2019-04-26T10:31:03.160Z,14.7
2019-04-26T10:32:03.050Z,14.5
2019-04-26T10:33:03.649Z,14.6
2019-04-26T10:34:03.038Z,14.6
2019-04-26T10:35:02.861Z,14.6
2019-04-26T10:36:03.878Z,14.6
2019-04-26T10:37:08.091Z,14.6
2019-04-26T10:38:03.551Z,14.4
2019-04-26T10:39:03.632Z,14.4
2019-04-26T10:40:03.588Z,14.4
2019-04-26T10:41:03.586Z,14.4
2019-04-26T10:42:03.665Z,14.4
2019-04-26T10:43:03.609Z,14.4
2019-04-26T10:44:02.795Z,14.6
2019-04-26T10:45:03.607Z,14.5
2019-04-26T10:46:03.490Z,14.4
2019-04-26T10:47:06.180Z,14.4
2019-04-26T10:48:03.027Z,14.3
2019-04-26T10:49:12.178Z,14.3
2019-04-26T10:50:03.204Z,14.3
2019-04-26T10:51:08.970Z,14.3
2019-04-26T10:52:02.929Z,14.3
2019-04-26T10:53:02.965Z,14.2
2019-04-26T10:54:07.812Z,14.1
2019-04-26T10:55:02.944Z,14.1
2019-04-26T10:56:03.094Z,14.1
2019-04-26T10:57:02.908Z,14.1
2019-04-26T10:58:02.987Z,14.1
2019-04-26T10:59:10.797Z,14.1
2019-04-26T11:00:03.884Z,14.1
2019-04-26T11:01:03.807Z,14.1
2019-04-26T11:02:03.691Z,14.1
2019-04-26T11:03:06.269Z,14
2019-04-26T11:04:03.653Z,14.1
2019-04-26T11:05:03.449Z,14.1
2019-04-26T11:06:03.334Z,14
2019-04-26T11:07:03.607Z,13.9
2019-04-26T11:08:03.423Z,14
2019-04-26T11:09:03.345Z,13.9
2019-04-26T11:10:03.400Z,13.9
2019-04-26T11:11:03.554Z,13.9
2019-04-26T11:12:03.452Z,14
2019-04-26T11:13:03.346Z,13.7
2019-04-26T11:14:03.049Z,13.6
2019-04-26T11:15:03.000Z,13.7
2019-04-26T11:16:09.045Z,13.8
2019-04-26T11:17:03.028Z,13.8
2019-04-26T11:18:02.932Z,13.8
2019-04-26T11:19:02.743Z,13.9
2019-04-26T11:20:11.941Z,13.8
2019-04-26T11:21:03.964Z,13.8
2019-04-26T11:22:03.806Z,13.9
2019-04-26T11:23:03.731Z,13.9
2019-04-26T11:24:03.741Z,13.9
2019-04-26T11:25:03.836Z,13.9
2019-04-26T11:26:03.393Z,13.9
2019-04-26T11:27:11.081Z,13.8
2019-04-26T11:28:03.793Z,13.7
2019-04-26T11:29:03.586Z,13.8
2019-04-26T11:30:21.331Z,13.7
2019-04-26T11:31:03.698Z,13.8
2019-04-26T11:32:04.415Z,13.7
2019-04-26T11:33:03.418Z,13.6
2019-04-26T11:34:05.935Z,13.6
2019-04-26T11:35:03.716Z,13.6
2019-04-26T11:36:08.728Z,13.4
2019-04-26T11:37:02.880Z,13.4
2019-04-26T11:38:03.250Z,13.4
2019-04-26T11:39:07.626Z,13.4
2019-04-26T11:40:03.162Z,13.4
2019-04-26T11:41:07.171Z,13.3
2019-04-26T11:42:03.221Z,13.3
2019-04-26T11:43:02.902Z,13.3
2019-04-26T11:44:03.299Z,13.4
2019-04-26T11:45:14.178Z,13.4
2019-04-26T11:46:05.165Z,13.4
2019-04-26T11:47:08.138Z,13.2
2019-04-26T11:48:03.558Z,13.2
2019-04-26T11:49:08.395Z,13.2
2019-04-26T11:50:03.537Z,13.1
2019-04-26T11:51:03.554Z,13
2019-04-26T11:52:04.172Z,12.9
2019-04-26T11:53:11.193Z,12.9
2019-04-26T11:54:03.740Z,12.9
2019-04-26T11:55:03.962Z,12.9
2019-04-26T11:56:05.972Z,12.9
2019-04-26T11:57:03.092Z,0
2019-04-26T11:58:03.117Z,0
2019-04-26T11:59:03.317Z,12.9
2019-04-26T12:00:06.807Z,12.8
2019-04-26T12:01:03.834Z,12.8
2019-04-26T12:02:03.008Z,12.8
2019-04-26T12:03:03.702Z,12.8
2019-04-26T12:04:03.605Z,12.8
2019-04-26T12:05:03.528Z,12.9
2019-04-26T12:06:03.865Z,12.7
2019-04-26T12:07:03.303Z,12.6
2019-04-26T12:08:03.343Z,12.6
2019-04-26T12:09:03.438Z,12.6
2019-04-26T12:10:11.270Z,12.6
2019-04-26T12:11:03.172Z,12.6
2019-04-26T12:12:09.024Z,12.6
2019-04-26T12:13:06.368Z,12.6
2019-04-26T12:14:04.456Z,12.4
2019-04-26T12:15:10.057Z,12.4
2019-04-26T12:16:02.789Z,12.4
2019-04-26T12:17:03.266Z,12.4
2019-04-26T12:18:10.958Z,12.4
2019-04-26T12:19:03.068Z,12.3
2019-04-26T12:20:03.565Z,12.3
2019-04-26T12:21:02.840Z,12.4
2019-04-26T12:22:09.767Z,12.5
2019-04-26T12:23:03.641Z,12.4
2019-04-26T12:24:03.439Z,12.4
2019-04-26T12:25:08.511Z,12.4
2019-04-26T12:26:02.662Z,12.4
2019-04-26T12:27:03.499Z,12.5
2019-04-26T12:28:07.586Z,12.4
2019-04-26T12:29:03.276Z,12.4
2019-04-26T12:30:03.721Z,12.4
2019-04-26T12:31:02.786Z,12.4
2019-04-26T12:32:03.249Z,12.3
2019-04-26T12:33:03.325Z,12.4
2019-04-26T12:34:03.025Z,12.4
2019-04-26T12:35:03.423Z,12.3
2019-04-26T12:36:03.585Z,12.3
2019-04-26T12:37:03.548Z,12.2
2019-04-26T12:38:03.469Z,12.3
2019-04-26T12:39:03.640Z,12.3
2019-04-26T12:40:03.329Z,12.3
2019-04-26T12:41:03.015Z,12.3
2019-04-26T12:42:03.102Z,12.3
2019-04-26T12:43:03.471Z,12.2
2019-04-26T12:44:03.551Z,12.2
2019-04-26T12:45:02.918Z,12
2019-04-26T12:46:02.745Z,12.1
2019-04-26T12:47:05.356Z,12
2019-04-26T12:48:02.912Z,11.9
2019-04-26T12:49:03.036Z,11.9
2019-04-26T12:50:03.143Z,11.9
2019-04-26T12:51:02.986Z,11.9
2019-04-26T12:52:03.918Z,11.9
2019-04-26T12:53:03.833Z,11.9
2019-04-26T12:54:09.777Z,11.8
2019-04-26T12:55:03.597Z,11.8
2019-04-26T12:56:03.607Z,11.7
2019-04-26T12:57:07.119Z,11.7
2019-04-26T12:58:03.512Z,11.8
2019-04-26T12:59:03.525Z,11.7
2019-04-26T13:00:03.875Z,11.7
2019-04-26T13:01:03.734Z,11.7
2019-04-26T13:02:06.370Z,11.8
2019-04-26T13:03:03.677Z,11.8
2019-04-26T13:04:03.841Z,11.8
2019-04-26T13:05:03.811Z,11.6
2019-04-26T13:06:03.611Z,11.6
2019-04-26T13:07:08.846Z,11.6
2019-04-26T13:08:03.575Z,11.6
2019-04-26T13:09:03.319Z,11.6
2019-04-26T13:10:03.504Z,11.6
2019-04-26T13:11:16.027Z,11.5
2019-04-26T13:12:03.619Z,11.5
2019-04-26T13:13:03.339Z,11.6
2019-04-26T13:14:03.626Z,11.6
2019-04-26T13:15:03.480Z,11.6
2019-04-26T13:16:03.344Z,11.6
2019-04-26T13:17:03.291Z,11.6
2019-04-26T13:18:03.533Z,11.6
2019-04-26T13:19:03.145Z,11.5
2019-04-26T13:20:03.142Z,11.5
2019-04-26T13:21:04.615Z,11.4
2019-04-26T13:22:03.308Z,11.4
2019-04-26T13:23:03.241Z,11.4
2019-04-26T13:24:06.344Z,11.5
2019-04-26T13:25:03.326Z,11.5
2019-04-26T13:26:02.856Z,11.4
2019-04-26T13:27:12.214Z,11.4
2019-04-26T13:28:03.722Z,11.4
2019-04-26T13:29:03.180Z,11.4